Terminal Aerodrome Forecast
Issued by NWS

Home | Current Version | Previous Version | Graphics & Text | Print | Product List | Glossary On
Versions: 1 2 3 4 5 6 7 8 9 10 11 12 13 14 15
000
FTUS43 KABR 232300
TAFMBG
TAF
KMBG 232324Z 2400/2424 34016KT P6SM OVC012
     FM240500 VRB05KT 6SM BR OVC007
     FM241500 18006KT P6SM OVC050=

USA.gov is the U.S. government's official web portal to all federal, state and local government web resources and services.